Time;durP1;ratioP1;P1;durP2;ratioP2;P2;SDS_P1;SDS_P2;PMS_P1;PMS_P2;Temp;Humidity;BMP_temperature;BMP_pressure;BME280_temperature;BME280_humidity;BME280_pressure;Samples;Min_cycle;Max_cycle;Signal;HPM_P1;HPM_P2
2022/04/27 00:01:14;;;;;;;0.45;0.45;;;;;;;7.46;100.00;100899.84;7398717;19;20047;-88
2022/04/27 00:03:41;;;;;;;8.82;1.15;;;;;;;7.38;100.00;100906.75;7396430;19;20021;-82
2022/04/27 00:06:09;;;;;;;0.65;0.40;;;;;;;7.24;100.00;100901.47;7391657;19;20014;-86
2022/04/27 00:08:35;;;;;;;0.98;0.93;;;;;;;7.16;100.00;100904.81;7390414;19;20105;-87
2022/04/27 00:11:02;;;;;;;0.68;0.68;;;;;;;7.15;100.00;100904.03;7394753;19;20042;-81
2022/04/27 00:13:28;;;;;;;0.95;0.95;;;;;;;7.05;100.00;100907.81;7393074;19;20506;-83
2022/04/27 00:15:54;;;;;;;0.60;0.60;;;;;;;6.94;100.00;100907.25;7390390;19;20038;-80
2022/04/27 00:18:21;;;;;;;1.08;0.65;;;;;;;6.90;100.00;100906.53;7393418;19;20017;-87
2022/04/27 00:20:47;;;;;;;0.65;0.38;;;;;;;6.92;100.00;100906.88;7398239;19;20141;-85
2022/04/27 00:23:13;;;;;;;0.50;0.50;;;;;;;6.86;100.00;100919.66;7391486;19;20015;-81
2022/04/27 00:25:39;;;;;;;0.50;0.50;;;;;;;6.79;100.00;100906.75;7390887;19;20090;-88
2022/04/27 00:28:06;;;;;;;0.90;0.90;;;;;;;6.76;100.00;100909.56;7392746;19;20011;-86
2022/04/27 00:30:32;;;;;;;1.38;0.90;;;;;;;6.85;100.00;100902.25;7397109;19;20023;-84
2022/04/27 00:32:58;;;;;;;3.17;1.20;;;;;;;6.86;100.00;100900.28;7394838;19;20026;-86
2022/04/27 00:35:24;;;;;;;2.95;1.90;;;;;;;6.87;100.00;100904.59;7394300;19;20015;-82
2022/04/27 00:37:50;;;;;;;3.20;1.20;;;;;;;6.87;100.00;100899.06;7396152;19;20014;-88
2022/04/27 00:40:17;;;;;;;0.80;0.80;;;;;;;6.80;100.00;100904.72;7394209;19;20022;-89
2022/04/27 00:42:43;;;;;;;0.93;0.93;;;;;;;6.78;100.00;100896.06;7394882;19;20010;-81
2022/04/27 00:45:09;;;;;;;0.68;0.68;;;;;;;6.72;100.00;100892.22;7391425;19;20075;-93
2022/04/27 00:47:35;;;;;;;0.93;0.88;;;;;;;6.77;100.00;100895.31;7389495;19;20022;-84
2022/04/27 00:50:02;;;;;;;2.85;1.48;;;;;;;6.79;100.00;100892.91;7392835;19;20671;-81
2022/04/27 00:52:30;;;;;;;0.57;0.57;;;;;;;6.76;100.00;100898.47;7399337;19;20010;-84
2022/04/27 00:54:57;;;;;;;1.92;0.93;;;;;;;6.80;100.00;100896.41;7393263;19;20021;-84
2022/04/27 00:57:24;;;;;;;1.75;1.38;;;;;;;6.71;100.00;100896.97;7391012;19;20021;-79
2022/04/27 00:59:51;;;;;;;2.10;1.70;;;;;;;6.68;100.00;100899.81;7387747;19;20082;-82
2022/04/27 01:02:18;;;;;;;2.20;1.27;;;;;;;6.65;100.00;100893.16;7390827;19;20036;-82
2022/04/27 01:04:45;;;;;;;1.98;1.85;;;;;;;6.61;100.00;100892.44;7390005;19;20089;-81
2022/04/27 01:07:11;;;;;;;0.88;0.88;;;;;;;6.62;100.00;100899.53;7386720;19;20087;-82
2022/04/27 01:09:39;;;;;;;0.93;0.93;;;;;;;6.63;100.00;100900.31;7389684;19;20033;-85
2022/04/27 01:12:05;;;;;;;1.92;1.45;;;;;;;6.59;100.00;100905.91;7390362;19;20010;-81
2022/04/27 01:14:49;;;;;;;1.00;1.00;;;;;;;6.59;100.00;100902.34;7387195;19;20014;-79
2022/04/27 01:17:16;;;;;;;1.13;1.13;;;;;;;6.56;100.00;100897.69;7385730;19;20018;-81
2022/04/27 01:19:42;;;;;;;0.90;0.85;;;;;;;6.50;100.00;100897.38;7391134;19;20022;-92
2022/04/27 01:22:09;;;;;;;0.95;0.95;;;;;;;6.51;100.00;100909.22;7396046;19;20033;-86
2022/04/27 01:24:44;;;;;;;2.92;1.15;;;;;;;6.51;100.00;100903.69;7391501;19;20376;-86
2022/04/27 01:27:10;;;;;;;0.55;0.55;;;;;;;6.40;100.00;100903.88;7392877;19;20013;-85
2022/04/27 01:29:37;;;;;;;3.90;1.10;;;;;;;6.38;100.00;100911.03;7392518;19;20015;-90
2022/04/27 01:32:04;;;;;;;1.23;1.10;;;;;;;6.30;100.00;100912.38;7398324;19;20015;-90
2022/04/27 01:34:30;;;;;;;1.75;1.23;;;;;;;6.29;100.00;100902.50;7394139;19;20119;-89
2022/04/27 01:37:59;;;;;;;1.30;1.05;;;;;;;6.29;100.00;100908.81;7395357;19;20030;-89
2022/04/27 01:39:43;;;;;;;4.30;1.73;;;;;;;6.27;100.00;100902.13;7403225;19;20026;-90
2022/04/27 01:42:09;;;;;;;0.65;0.65;;;;;;;6.34;100.00;100902.81;7403508;19;20011;-89
2022/04/27 01:44:35;;;;;;;0.80;0.80;;;;;;;6.32;100.00;100909.97;7398406;19;20338;-90
2022/04/27 01:47:02;;;;;;;1.05;1.05;;;;;;;6.32;100.00;100908.00;7398811;19;20034;-90
2022/04/27 01:49:28;;;;;;;0.68;0.68;;;;;;;6.23;100.00;100910.50;7398203;19;20015;-89
2022/04/27 01:54:39;;;;;;;1.35;1.35;;;;;;;6.21;100.00;100917.66;7402704;19;20353;-89
2022/04/27 01:57:07;;;;;;;3.65;1.23;;;;;;;6.17;100.00;100928.00;7401036;19;20021;-90
2022/04/27 01:59:34;;;;;;;3.08;1.48;;;;;;;6.16;100.00;100926.41;7401364;19;20010;-90
2022/04/27 02:02:00;;;;;;;7.97;2.05;;;;;;;6.11;100.00;100938.72;7402650;19;20077;-89
2022/04/27 02:04:27;;;;;;;1.40;1.15;;;;;;;6.06;100.00;100931.69;7402146;19;20034;-90
2022/04/27 02:06:54;;;;;;;5.47;1.27;;;;;;;6.06;100.00;100933.69;7398637;19;20030;-89
2022/04/27 02:09:20;;;;;;;1.88;1.77;;;;;;;5.99;100.00;100934.59;7399112;19;20027;-90
2022/04/27 02:11:48;;;;;;;0.52;0.52;;;;;;;5.93;100.00;100941.75;7401544;19;20033;-89
2022/04/27 02:14:14;;;;;;;0.70;0.70;;;;;;;5.94;100.00;100943.34;7401141;19;20022;-90
2022/04/27 02:16:42;;;;;;;1.38;1.27;;;;;;;5.99;100.00;100942.88;7401583;19;20476;-90
2022/04/27 02:19:13;;;;;;;0.60;0.60;;;;;;;6.00;100.00;100938.09;7401426;19;20014;-89
2022/04/27 02:21:41;;;;;;;1.92;0.95;;;;;;;5.98;100.00;100949.59;7400651;19;20029;-90
2022/04/27 02:24:07;;;;;;;0.85;0.80;;;;;;;5.93;100.00;100944.53;7401759;19;20361;-89
2022/04/27 02:26:34;;;;;;;1.35;1.35;;;;;;;5.88;100.00;100950.53;7398573;19;20031;-89
2022/04/27 02:29:02;;;;;;;0.82;0.77;;;;;;;5.82;100.00;100954.94;7398562;19;20111;-90
2022/04/27 02:31:29;;;;;;;1.52;1.30;;;;;;;5.77;100.00;100960.13;7399981;19;20129;-88
2022/04/27 02:33:55;;;;;;;1.00;1.00;;;;;;;5.73;100.00;100954.69;7395133;19;20106;-90
2022/04/27 02:36:22;;;;;;;1.70;0.93;;;;;;;5.73;100.00;100960.19;7395504;19;20025;-87
2022/04/27 02:38:50;;;;;;;2.00;1.30;;;;;;;5.69;100.00;100965.00;7396325;19;20030;-82
2022/04/27 02:41:16;;;;;;;1.95;1.42;;;;;;;5.73;100.00;100970.47;7393182;19;20045;-82
2022/04/27 02:43:42;;;;;;;1.58;1.45;;;;;;;5.71;100.00;100973.66;7394061;19;20080;-88
2022/04/27 02:46:12;;;;;;;2.53;1.23;;;;;;;5.74;100.00;100966.53;7391948;19;20015;-82
2022/04/27 02:51:48;;;;;;;1.30;1.15;;;;;;;5.70;100.00;100976.81;7387681;19;20031;-83
2022/04/27 02:54:12;;;;;;;2.92;1.80;;;;;;;5.65;100.00;100978.06;7390131;19;20018;-80
2022/04/27 02:56:39;;;;;;;1.17;1.17;;;;;;;5.74;100.00;100972.81;7389730;19;20014;-77
2022/04/27 02:59:05;;;;;;;2.63;1.30;;;;;;;5.81;100.00;100982.97;7394798;19;20035;-85
2022/04/27 03:01:31;;;;;;;2.65;2.45;;;;;;;5.74;100.00;100983.09;7395367;19;20018;-83
2022/04/27 03:03:58;;;;;;;1.98;1.75;;;;;;;5.74;100.00;100980.34;7395048;19;20013;-83
2022/04/27 03:06:26;;;;;;;0.88;0.88;;;;;;;5.71;100.00;100986.69;7394044;19;20014;-84
2022/04/27 03:08:53;;;;;;;1.50;1.40;;;;;;;5.65;100.00;100986.34;7394597;19;20476;-87
2022/04/27 03:11:20;;;;;;;1.58;1.48;;;;;;;5.69;100.00;100987.09;7398845;19;20018;-85
2022/04/27 03:14:06;;;;;;;1.02;0.63;;;;;;;5.76;100.00;100986.22;7396939;19;20015;-80
2022/04/27 03:16:32;;;;;;;0.73;0.73;;;;;;;5.82;100.00;100985.34;7395033;19;20029;-84
2022/04/27 03:18:59;;;;;;;5.25;2.13;;;;;;;5.87;100.00;100993.19;7396603;19;20039;-84
2022/04/27 03:21:28;;;;;;;3.28;1.27;;;;;;;5.93;100.00;100991.53;7397732;19;20022;-84
2022/04/27 03:23:54;;;;;;;1.45;1.35;;;;;;;6.02;100.00;100986.25;7396488;19;20011;-81
2022/04/27 03:26:21;;;;;;;1.73;1.60;;;;;;;6.07;100.00;100996.88;7393957;19;20033;-83
2022/04/27 03:28:47;;;;;;;1.70;1.60;;;;;;;6.11;100.00;100986.53;7391936;19;20077;-82
2022/04/27 03:31:13;;;;;;;2.92;1.38;;;;;;;6.15;100.00;100975.41;7389302;19;20015;-78
2022/04/27 03:33:41;;;;;;;1.58;1.20;;;;;;;6.23;100.00;100987.16;7390676;19;20683;-78
2022/04/27 03:36:08;;;;;;;4.13;1.25;;;;;;;6.28;100.00;100983.94;7388300;19;20026;-78
2022/04/27 03:38:38;;;;;;;0.93;0.90;;;;;;;6.28;100.00;100979.16;7388610;19;20037;-78
2022/04/27 03:41:05;;;;;;;1.67;1.13;;;;;;;6.32;100.00;100979.13;7388709;19;20377;-78
2022/04/27 03:43:33;;;;;;;1.45;1.35;;;;;;;6.40;100.00;100975.81;7385645;19;20014;-78
2022/04/27 03:45:59;;;;;;;1.63;1.52;;;;;;;6.44;100.00;100981.28;7385293;19;20021;-78
2022/04/27 03:48:26;;;;;;;2.35;1.08;;;;;;;6.47;100.00;100980.47;7386006;19;20014;-78
2022/04/27 03:50:52;;;;;;;0.95;0.93;;;;;;;6.49;100.00;100978.06;7388672;19;20472;-78
2022/04/27 03:53:19;;;;;;;0.95;0.90;;;;;;;6.49;100.00;100983.59;7389868;19;20446;-78
2022/04/27 03:55:46;;;;;;;3.95;1.13;;;;;;;6.52;100.00;100982.75;7387912;19;20280;-78
2022/04/27 03:58:12;;;;;;;3.28;1.38;;;;;;;6.50;100.00;100988.69;7389812;19;20021;-78
2022/04/27 04:00:38;;;;;;;0.73;0.50;;;;;;;6.47;100.00;100986.78;7384440;19;20334;-78
2022/04/27 04:03:17;;;;;;;0.85;0.85;;;;;;;6.45;100.00;100988.41;7384819;19;20495;-78
2022/04/27 04:05:44;;;;;;;1.75;1.65;;;;;;;6.41;100.00;100985.66;7386373;19;20052;-79
2022/04/27 04:08:11;;;;;;;0.70;0.70;;;;;;;6.37;100.00;100984.94;7386029;19;20022;-79
2022/04/27 04:10:37;;;;;;;1.52;0.93;;;;;;;6.28;100.00;100979.16;7386023;19;20018;-79
2022/04/27 04:13:03;;;;;;;1.45;1.30;;;;;;;6.29;100.00;100988.25;7387507;19;20019;-79
2022/04/27 04:15:37;;;;;;;0.40;0.40;;;;;;;6.25;100.00;100990.28;7388669;19;20345;-79
2022/04/27 04:18:21;;;;;;;0.55;0.55;;;;;;;6.26;100.00;100991.88;7386074;19;20018;-79
2022/04/27 04:21:00;;;;;;;0.82;0.82;;;;;;;6.29;100.00;101002.88;7386657;19;20015;-79
2022/04/27 04:23:42;;;;;;;1.58;1.05;;;;;;;6.26;100.00;100994.63;7387507;19;20070;-79
2022/04/27 04:28:56;;;;;;;2.25;1.08;;;;;;;6.29;100.00;101008.41;7384198;19;20018;-79
2022/04/27 04:31:23;;;;;;;3.40;1.95;;;;;;;6.29;100.00;101004.84;7387431;19;20034;-79
2022/04/27 04:34:07;;;;;;;3.28;0.77;;;;;;;6.32;100.00;101006.78;7390725;19;20472;-79
2022/04/27 04:36:33;;;;;;;1.13;1.13;;;;;;;6.34;100.00;100996.06;7385154;19;20022;-79
2022/04/27 04:39:00;;;;;;;1.10;1.10;;;;;;;6.39;100.00;100998.38;7386220;19;20890;-79
2022/04/27 04:41:29;;;;;;;0.45;0.45;;;;;;;6.41;100.00;101004.28;7386336;19;20045;-80
2022/04/27 04:43:58;;;;;;;1.60;1.50;;;;;;;6.45;100.00;101002.22;7385746;19;20014;-81
2022/04/27 04:46:27;;;;;;;1.00;0.82;;;;;;;6.51;100.00;100998.56;7386067;19;20345;-82
2022/04/27 04:49:04;;;;;;;0.73;0.50;;;;;;;6.54;100.00;101008.03;7385037;19;20035;-81
2022/04/27 04:51:49;;;;;;;2.70;0.60;;;;;;;6.57;100.00;101013.50;7387242;19;20019;-81
2022/04/27 04:54:36;;;;;;;1.60;1.50;;;;;;;6.59;100.00;101010.28;7384384;19;20035;-80
2022/04/27 04:57:04;;;;;;;1.02;1.00;;;;;;;6.64;100.00;101015.34;7387827;19;20018;-82
2022/04/27 04:59:39;;;;;;;1.05;0.40;;;;;;;6.66;100.00;101008.19;7386496;19;20018;-81
2022/04/27 05:02:10;;;;;;;;;;;;;;;6.70;100.00;101016.44;7389382;19;20468;-82
2022/04/27 05:04:51;;;;;;;0.60;0.60;;;;;;;6.77;100.00;101021.84;7387770;19;19923;-81
2022/04/27 05:07:20;;;;;;;0.70;0.70;;;;;;;6.80;100.00;101026.53;7384109;19;20043;-81
2022/04/27 05:10:02;;;;;;;1.20;1.10;;;;;;;6.80;100.00;101021.00;7384446;19;20524;-82
2022/04/27 05:12:43;;;;;;;0.95;0.93;;;;;;;6.84;100.00;101021.75;7383649;19;20033;-81
2022/04/27 05:15:21;;;;;;;1.63;1.25;;;;;;;6.95;100.00;101027.88;7386580;19;20031;-81
2022/04/27 05:18:14;;;;;;;1.20;1.02;;;;;;;7.04;100.00;101022.56;7383014;19;20022;-81
2022/04/27 05:20:59;;;;;;;0.80;0.80;;;;;;;7.16;100.00;101027.50;7386856;19;20010;-81
2022/04/27 05:23:40;;;;;;;;;;;;;;;7.31;100.00;101034.34;7387921;19;20018;-81
2022/04/27 05:26:40;;;;;;;0.70;0.70;;;;;;;7.42;100.00;101034.91;7383387;19;20337;-81
2022/04/27 05:32:18;;;;;;;3.25;1.55;;;;;;;7.15;100.00;101039.78;7390802;19;20014;-81
2022/04/27 05:35:13;;;;;;;5.53;1.60;;;;;;;7.21;100.00;101032.53;7386505;19;20498;-81
2022/04/27 05:38:03;;;;;;;8.82;1.20;;;;;;;7.62;100.00;101041.25;7385445;19;20481;-82
2022/04/27 05:40:47;;;;;;;1.80;1.70;;;;;;;7.58;100.00;101046.06;7386314;19;20022;-81
2022/04/27 05:43:38;;;;;;;6.45;1.45;;;;;;;7.61;100.00;101041.66;7386986;19;20015;-81
2022/04/27 05:46:27;;;;;;;3.85;1.55;;;;;;;7.70;100.00;101044.66;7384775;19;20528;-81
2022/04/27 05:49:13;;;;;;;0.85;0.85;;;;;;;7.79;100.00;101049.63;7382987;19;20059;-80
2022/04/27 05:52:00;;;;;;;1.05;0.70;;;;;;;7.92;100.00;101061.66;7387612;19;20018;-81
2022/04/27 05:54:36;;;;;;;3.42;1.00;;;;;;;8.03;100.00;101053.88;7384342;19;20037;-81
2022/04/27 05:57:18;;;;;;;0.60;0.60;;;;;;;8.17;100.00;101056.34;7384516;19;20023;-81
2022/04/27 06:00:04;;;;;;;0.40;0.40;;;;;;;8.27;100.00;101055.38;7385240;19;20018;-81
2022/04/27 06:02:50;;;;;;;1.27;1.15;;;;;;;8.35;100.00;101052.00;7384084;19;20015;-81
2022/04/27 06:05:23;;;;;;;2.38;0.60;;;;;;;8.55;100.00;101060.28;7382984;19;20022;-81
2022/04/27 06:07:49;;;;;;;8.70;1.25;;;;;;;8.65;100.00;101059.22;7382430;19;20497;-80
2022/04/27 06:10:19;;;;;;;1.67;0.30;;;;;;;8.79;100.00;101058.88;7383064;19;20018;-81
2022/04/27 06:12:52;;;;;;;9.75;1.10;;;;;;;8.87;100.00;101056.72;7383788;19;20021;-80
2022/04/27 06:15:37;;;;;;;6.80;0.75;;;;;;;8.90;100.00;101062.16;7384864;19;20018;-81
2022/04/27 06:18:10;;;;;;;1.15;0.93;;;;;;;8.82;100.00;101063.56;7383369;19;20014;-79
2022/04/27 06:20:39;;;;;;;0.70;0.70;;;;;;;8.82;100.00;101062.78;7384087;19;20014;-82
2022/04/27 06:23:06;;;;;;;0.30;0.20;;;;;;;8.76;100.00;101065.31;7383830;19;20014;-83
2022/04/27 06:25:34;;;;;;;0.98;0.77;;;;;;;8.73;100.00;101068.94;7390511;19;20019;-81
2022/04/27 06:28:08;;;;;;;0.55;0.47;;;;;;;8.77;100.00;101066.84;7391208;19;20018;-83
2022/04/27 06:30:35;;;;;;;5.43;1.00;;;;;;;8.78;100.00;101073.19;7390861;19;20082;-82
2022/04/27 06:33:02;;;;;;;0.43;0.43;;;;;;;8.74;100.00;101073.28;7391521;19;20014;-82
2022/04/27 06:35:28;;;;;;;2.00;0.98;;;;;;;8.78;100.00;101073.19;7391816;19;20022;-83
2022/04/27 06:38:00;;;;;;;0.85;0.40;;;;;;;8.86;100.00;101080.91;7392415;19;20014;-83
2022/04/27 06:40:27;;;;;;;4.60;0.63;;;;;;;8.96;100.00;101079.91;7390985;19;20019;-83
2022/04/27 06:42:53;;;;;;;1.65;0.73;;;;;;;9.06;100.00;101084.41;7388401;19;20019;-83
2022/04/27 06:45:38;;;;;;;0.73;0.60;;;;;;;9.14;100.00;101080.22;7393305;19;20015;-84
2022/04/27 06:48:23;;;;;;;0.50;0.50;;;;;;;9.21;100.00;101078.47;7392503;19;20129;-83
2022/04/27 06:51:07;;;;;;;1.85;0.50;;;;;;;9.24;100.00;101083.94;7392605;19;20022;-83
2022/04/27 06:53:54;;;;;;;2.50;1.45;;;;;;;9.30;100.00;101084.19;7389863;19;20014;-83
2022/04/27 06:56:38;;;;;;;1.48;0.75;;;;;;;9.30;100.00;101081.41;7393372;19;20078;-83
2022/04/27 06:59:33;;;;;;;0.50;0.50;;;;;;;9.34;100.00;101076.53;7389742;19;20023;-83
2022/04/27 07:02:10;;;;;;;0.40;0.40;;;;;;;9.33;100.00;101086.09;7392105;19;20438;-83
2022/04/27 07:04:36;;;;;;;0.73;0.73;;;;;;;9.31;100.00;101094.09;7391069;19;20029;-83
2022/04/27 07:07:04;;;;;;;0.60;0.47;;;;;;;9.36;100.00;101096.34;7388388;19;20483;-84
2022/04/27 07:09:31;;;;;;;0.70;0.70;;;;;;;9.42;100.00;101094.59;7395713;19;20026;-84
2022/04/27 07:11:58;;;;;;;1.15;1.15;;;;;;;9.51;100.00;101103.09;7395893;19;20010;-83
2022/04/27 07:14:24;;;;;;;0.38;0.38;;;;;;;9.46;100.00;101100.84;7391376;19;20111;-83
2022/04/27 07:16:50;;;;;;;0.52;0.52;;;;;;;9.49;100.00;101097.19;7390925;19;20014;-83
2022/04/27 07:19:17;;;;;;;0.57;0.57;;;;;;;9.50;100.00;101107.09;7389663;19;20040;-81
2022/04/27 07:21:43;;;;;;;2.83;0.55;;;;;;;9.59;100.00;101104.47;7391273;19;20353;-82
2022/04/27 07:24:09;;;;;;;0.30;0.30;;;;;;;9.63;100.00;101110.72;7389402;19;20046;-83
2022/04/27 07:26:36;;;;;;;0.50;0.50;;;;;;;9.69;100.00;101112.53;7386957;19;20356;-82
2022/04/27 07:29:02;;;;;;;0.85;0.50;;;;;;;9.79;100.00;101107.88;7388042;19;20874;-82
2022/04/27 07:31:28;;;;;;;0.60;0.60;;;;;;;9.85;100.00;101111.69;7388680;19;20097;-82
2022/04/27 07:33:55;;;;;;;3.92;0.63;;;;;;;9.88;100.00;101110.81;7393065;19;20646;-83
2022/04/27 07:36:21;;;;;;;1.67;0.77;;;;;;;9.85;100.00;101112.47;7387243;19;20393;-83
2022/04/27 07:38:47;;;;;;;3.55;1.55;;;;;;;9.93;100.00;101118.63;7387975;19;20007;-82
2022/04/27 07:41:13;;;;;;;0.57;0.52;;;;;;;10.01;100.00;101119.19;7389282;19;20053;-82
2022/04/27 07:43:40;;;;;;;1.33;0.80;;;;;;;10.13;100.00;101122.06;7388169;19;20476;-82
2022/04/27 07:46:08;;;;;;;2.72;0.63;;;;;;;10.30;100.00;101128.31;7387934;19;20022;-82
2022/04/27 07:48:37;;;;;;;2.85;0.82;;;;;;;10.41;100.00;101124.00;7388391;19;20028;-82
2022/04/27 07:51:06;;;;;;;0.75;0.75;;;;;;;10.40;100.00;101125.22;7388724;19;20497;-82
2022/04/27 07:53:33;;;;;;;3.10;1.25;;;;;;;10.46;100.00;101133.81;7389949;19;20021;-82
2022/04/27 07:55:59;;;;;;;0.90;0.40;;;;;;;10.46;100.00;101119.88;7389794;19;20030;-83
2022/04/27 07:58:25;;;;;;;0.52;0.47;;;;;;;10.50;100.00;101124.09;7389111;19;20524;-82
2022/04/27 08:00:51;;;;;;;0.73;0.70;;;;;;;10.50;100.00;101132.47;7389561;19;20029;-83
2022/04/27 08:03:17;;;;;;;0.40;0.40;;;;;;;10.49;100.00;101130.91;7388289;19;20378;-83
2022/04/27 08:05:44;;;;;;;1.75;1.40;;;;;;;10.50;100.00;101146.38;7389803;19;20010;-83
2022/04/27 08:08:10;;;;;;;4.80;0.90;;;;;;;10.57;100.00;101139.81;7390432;19;20018;-84
2022/04/27 08:10:37;;;;;;;0.40;0.40;;;;;;;10.65;100.00;101144.72;7390980;19;20477;-83
2022/04/27 08:13:03;;;;;;;0.43;0.38;;;;;;;10.77;100.00;101145.97;7388956;19;20060;-79
2022/04/27 08:15:29;;;;;;;4.32;1.25;;;;;;;10.91;100.00;101144.75;7388400;19;20386;-83
2022/04/27 08:17:59;;;;;;;0.63;0.60;;;;;;;11.12;100.00;101155.22;7390598;19;20034;-85
2022/04/27 08:23:13;;;;;;;1.38;0.90;;;;;;;11.90;100.00;101156.94;7389978;19;20018;-85
2022/04/27 08:25:40;;;;;;;1.48;0.70;;;;;;;12.31;100.00;101146.66;7391334;19;20018;-84
2022/04/27 08:28:07;;;;;;;2.05;1.20;;;;;;;12.63;100.00;101144.22;7391614;19;20014;-85
2022/04/27 08:30:35;;;;;;;9.90;1.20;;;;;;;12.97;100.00;101143.28;7389129;19;20792;-83
2022/04/27 08:33:03;;;;;;;1.88;0.63;;;;;;;13.10;100.00;101146.78;7390375;19;20086;-83
2022/04/27 08:35:31;;;;;;;3.47;0.73;;;;;;;13.35;100.00;101140.94;7389611;19;20496;-82
2022/04/27 08:37:58;;;;;;;1.40;0.68;;;;;;;13.48;100.00;101152.78;7391865;19;20017;-81
2022/04/27 08:40:25;;;;;;;7.70;1.45;;;;;;;13.19;100.00;101143.25;7388871;19;20486;-79
2022/04/27 08:42:52;;;;;;;1.02;0.63;;;;;;;13.01;100.00;101143.94;7388576;19;20015;-78
2022/04/27 08:45:19;;;;;;;1.65;1.42;;;;;;;13.15;100.00;101148.97;7388064;19;20031;-78
2022/04/27 08:47:46;;;;;;;2.90;1.52;;;;;;;13.36;100.00;101150.13;7386192;19;20603;-82
2022/04/27 08:50:13;;;;;;;0.65;0.65;;;;;;;13.53;100.00;101149.38;7387100;19;20030;-83
2022/04/27 08:52:41;;;;;;;2.15;0.77;;;;;;;13.64;100.00;101146.88;7386749;19;20022;-82
2022/04/27 08:55:08;;;;;;;1.23;0.70;;;;;;;13.72;98.89;101152.16;7387844;19;20039;-83
2022/04/27 08:57:35;;;;;;;1.20;0.63;;;;;;;13.91;100.00;101159.31;7386746;19;20378;-84
2022/04/27 09:00:08;;;;;;;2.67;1.13;;;;;;;14.06;98.55;101154.66;7388387;19;20022;-82
2022/04/27 09:02:35;;;;;;;0.68;0.68;;;;;;;14.13;96.09;101166.34;7389369;19;20015;-81
2022/04/27 09:05:08;;;;;;;2.80;1.90;;;;;;;14.00;93.96;101162.91;7391212;19;20018;-81
2022/04/27 09:07:56;;;;;;;7.72;2.05;;;;;;;14.01;94.17;101169.31;7387154;19;20018;-82
2022/04/27 09:10:24;;;;;;;1.67;0.98;;;;;;;13.88;93.96;101154.69;7385107;19;20014;-82
2022/04/27 09:12:55;;;;;;;2.60;1.60;;;;;;;13.95;93.75;101163.53;7384596;19;20010;-81
2022/04/27 09:15:23;;;;;;;9.75;1.70;;;;;;;13.98;92.09;101167.44;7387227;19;20026;-82
2022/04/27 09:20:48;;;;;;;1.85;0.52;;;;;;;13.91;92.17;101170.53;7388238;19;20468;-83
2022/04/27 09:23:21;;;;;;;4.10;0.88;;;;;;;13.97;92.41;101171.50;7387863;19;20098;-83
2022/04/27 09:25:50;;;;;;;0.50;0.40;;;;;;;14.15;92.96;101168.66;7389302;19;20428;-82
2022/04/27 09:28:17;;;;;;;2.03;0.77;;;;;;;14.33;93.09;101179.88;7389335;19;20018;-85
2022/04/27 09:30:44;;;;;;;0.98;0.75;;;;;;;14.46;91.30;101177.69;7391677;19;20026;-83
2022/04/27 09:33:10;;;;;;;1.50;0.73;;;;;;;14.64;92.11;101177.63;7385607;19;20015;-84
2022/04/27 09:35:37;;;;;;;0.60;0.60;;;;;;;14.58;89.10;101181.53;7386223;19;20043;-83
2022/04/27 09:38:14;;;;;;;5.35;0.75;;;;;;;14.50;88.74;101177.50;7387350;19;20387;-84
2022/04/27 09:40:47;;;;;;;1.60;0.73;;;;;;;14.39;86.53;101180.81;7388307;19;20369;-84
2022/04/27 09:43:14;;;;;;;1.00;0.90;;;;;;;14.33;85.64;101180.66;7389924;19;20026;-84
2022/04/27 09:45:44;;;;;;;1.60;0.93;;;;;;;14.46;87.40;101182.50;7391396;19;20480;-84
2022/04/27 09:48:18;;;;;;;1.50;1.13;;;;;;;14.41;84.04;101178.31;7392415;19;20019;-85
2022/04/27 09:50:47;;;;;;;2.13;0.77;;;;;;;14.34;86.36;101184.22;7390268;19;20359;-85
2022/04/27 09:53:18;;;;;;;0.38;0.38;;;;;;;14.37;85.65;101181.28;7392141;19;20026;-83
2022/04/27 09:55:48;;;;;;;2.05;0.77;;;;;;;14.36;86.22;101178.94;7391771;19;20045;-84
2022/04/27 09:58:16;;;;;;;4.60;1.00;;;;;;;14.23;85.48;101175.50;7387110;19;20022;-84
2022/04/27 10:00:44;;;;;;;0.80;0.70;;;;;;;14.33;86.25;101171.47;7391143;19;20019;-83
2022/04/27 10:03:14;;;;;;;0.77;0.30;;;;;;;14.50;87.01;101178.28;7389405;19;20074;-83
2022/04/27 10:05:42;;;;;;;3.25;0.57;;;;;;;14.55;85.97;101180.47;7393546;19;20353;-84
2022/04/27 10:08:10;;;;;;;2.15;1.27;;;;;;;14.66;85.68;101191.94;7394057;19;20018;-82
2022/04/27 10:10:41;;;;;;;3.03;0.68;;;;;;;14.53;86.01;101185.75;7396042;19;20030;-83
2022/04/27 10:13:11;;;;;;;1.85;0.77;;;;;;;14.58;85.56;101196.34;7396913;19;20023;-83
2022/04/27 10:15:42;;;;;;;0.30;0.30;;;;;;;14.74;85.34;101193.19;7393295;19;20022;-83
2022/04/27 10:18:14;;;;;;;2.65;1.10;;;;;;;14.70;82.27;101186.97;7395235;19;20034;-83
2022/04/27 10:20:41;;;;;;;1.05;0.80;;;;;;;14.57;81.17;101189.19;7393127;19;20464;-84
2022/04/27 10:23:33;;;;;;;1.73;0.80;;;;;;;14.42;79.86;101182.69;7392751;19;20126;-83
2022/04/27 10:26:27;;;;;;;1.75;1.02;;;;;;;14.57;82.61;101183.59;7396372;19;20018;-83
2022/04/27 10:28:59;;;;;;;8.07;1.08;;;;;;;14.60;82.07;101185.44;7392283;19;20018;-84
2022/04/27 10:31:42;;;;;;;0.35;0.35;;;;;;;14.49;79.65;101190.00;7392581;19;20357;-83
2022/04/27 10:34:21;;;;;;;3.75;0.70;;;;;;;14.51;80.46;101184.69;7397522;19;20018;-84
2022/04/27 10:36:48;;;;;;;2.65;1.83;;;;;;;14.67;80.75;101192.72;7392998;19;20045;-82
2022/04/27 10:39:18;;;;;;;1.38;0.80;;;;;;;14.50;79.65;101183.91;7393049;19;20025;-84
2022/04/27 10:42:15;;;;;;;1.10;0.88;;;;;;;14.63;78.64;101186.50;7393507;19;20480;-84
2022/04/27 10:44:50;;;;;;;1.95;0.82;;;;;;;14.55;77.75;101185.28;7389264;19;20018;-83
2022/04/27 10:47:19;;;;;;;1.25;0.93;;;;;;;14.59;76.91;101183.88;7392024;19;20353;-82
2022/04/27 10:49:47;;;;;;;2.65;1.48;;;;;;;14.76;78.86;101193.50;7390902;19;20035;-83
2022/04/27 10:52:14;;;;;;;1.95;0.70;;;;;;;14.87;76.47;101190.97;7393727;19;20015;-83
2022/04/27 10:54:41;;;;;;;1.25;0.40;;;;;;;14.80;76.37;101185.69;7389891;19;20033;-82
2022/04/27 10:57:16;;;;;;;2.67;0.93;;;;;;;14.79;76.55;101194.59;7389615;19;20023;-83
2022/04/27 10:59:50;;;;;;;0.90;0.70;;;;;;;14.71;74.93;101188.50;7391027;19;20011;-89
2022/04/27 11:02:37;;;;;;;8.48;1.17;;;;;;;14.66;74.94;101191.94;7394754;19;20544;-90
2022/04/27 11:05:15;;;;;;;1.35;0.65;;;;;;;14.50;76.42;101195.13;7402118;19;20018;-96
2022/04/27 11:08:10;;;;;;;0.43;0.43;;;;;;;14.44;77.78;101192.16;7396361;19;20025;-86
2022/04/27 11:10:39;;;;;;;2.30;0.93;;;;;;;14.44;76.90;101191.41;7391076;19;20010;-86
2022/04/27 11:13:08;;;;;;;0.95;0.65;;;;;;;14.38;77.02;101190.44;7393679;19;20771;-89
2022/04/27 11:15:34;;;;;;;7.53;1.58;;;;;;;14.39;76.76;101192.03;7394243;19;20028;-96
2022/04/27 11:18:03;;;;;;;3.67;1.15;;;;;;;14.33;78.68;101191.88;7396516;19;20043;-88
2022/04/27 11:20:38;;;;;;;0.35;0.30;;;;;;;14.42;77.76;101188.28;7395771;19;20136;-92
2022/04/27 11:23:07;;;;;;;5.78;0.50;;;;;;;14.46;77.49;101194.50;7390871;19;20479;-83
2022/04/27 11:25:36;;;;;;;0.60;0.55;;;;;;;14.38;77.60;101187.66;7390764;19;20014;-85
2022/04/27 11:28:05;;;;;;;3.67;0.68;;;;;;;14.39;79.61;101190.00;7389039;19;20564;-82
2022/04/27 11:30:31;;;;;;;0.30;0.30;;;;;;;14.32;76.46;101190.31;7394969;19;20014;-92
2022/04/27 11:33:00;;;;;;;3.88;0.95;;;;;;;14.26;76.39;101191.38;7394509;19;20029;-85
2022/04/27 11:35:40;;;;;;;0.65;0.40;;;;;;;14.51;78.48;101190.28;7393549;19;20015;-90
2022/04/27 11:38:08;;;;;;;0.50;0.30;;;;;;;14.78;77.76;101198.63;7394761;19;20027;-92
2022/04/27 11:40:37;;;;;;;11.40;1.30;;;;;;;14.93;78.38;101197.50;7395814;19;20030;-88
2022/04/27 11:43:06;;;;;;;4.90;1.10;;;;;;;15.00;77.25;101191.53;7388386;19;20018;-88
2022/04/27 11:45:33;;;;;;;4.00;0.50;;;;;;;15.02;77.30;101191.06;7389159;19;20014;-89
2022/04/27 11:48:09;;;;;;;0.95;0.45;;;;;;;15.08;76.32;101192.75;7390342;19;20379;-89
2022/04/27 11:50:37;;;;;;;1.38;0.82;;;;;;;15.05;75.57;101190.88;7393881;19;20014;-86
2022/04/27 11:53:05;;;;;;;0.95;0.40;;;;;;;15.16;77.12;101190.38;7390875;19;20377;-88
2022/04/27 11:55:34;;;;;;;1.60;1.00;;;;;;;15.26;76.58;101191.13;7387104;19;20022;-94
2022/04/27 11:58:02;;;;;;;6.47;1.08;;;;;;;15.20;74.96;101186.13;7392109;19;20024;-94